KWAL/WAL METAR and TAF weather

Enter ICAO airport designator
Station Type Date Time Source
KWAL METAR 2021/03/08 13:54 UTC NOAA

KWAL 081354Z 00000KT 10SM FEW250 04/M04 A3052 RMK AO2 SLP332 T00391044


Station Type Date Time Source
KWAL Decoded METAR 2021/03/08 13:54 UTC NOAA

WALLOPS FLIGHT FAC AIRPORT , VA, United States (KWAL) 37-56N 075-28W 14M
Mar 08, 2021 - 08:54 AM EST / 2021.03.08 1354 UTC
Wind: Calm:0
Visibility: 10 mile(s):0
Sky conditions: mostly clear
Temperature: 39.0 F (3.9 C)
Dew Point: 24.1 F (-4.4 C)
Relative Humidity: 54%
Pressure (altimeter): 30.52 in. Hg (1033 hPa)
ob: KWAL 081354Z 00000KT 10SM FEW250 04/M04 A3052 RMK AO2 SLP332 T00391044
cycle: 14

Station Type Date Time Source
KWAL TAF UTC NOAA

Error!

Example: see airport list